sensor_id;sensor_type;location;lat;lon;timestamp;P1;durP1;ratioP1;P2;durP2;ratioP2
71513;SDS011;59335;46.652;21.272;2023-05-18T00:01:59;10.52;;;7.05;;
71513;SDS011;59335;46.652;21.272;2023-05-18T00:05:03;10.02;;;6.70;;
71513;SDS011;59335;46.652;21.272;2023-05-18T00:08:06;11.70;;;6.77;;
71513;SDS011;59335;46.652;21.272;2023-05-18T00:11:10;12.55;;;6.68;;
71513;SDS011;59335;46.652;21.272;2023-05-18T00:14:13;11.65;;;6.68;;
71513;SDS011;59335;46.652;21.272;2023-05-18T00:17:16;11.75;;;7.28;;
71513;SDS011;59335;46.652;21.272;2023-05-18T00:20:18;10.27;;;7.15;;
71513;SDS011;59335;46.652;21.272;2023-05-18T00:23:24;9.73;;;6.60;;
71513;SDS011;59335;46.652;21.272;2023-05-18T00:26:33;11.82;;;6.53;;
71513;SDS011;59335;46.652;21.272;2023-05-18T00:29:35;9.82;;;6.57;;
71513;SDS011;59335;46.652;21.272;2023-05-18T00:32:38;12.60;;;6.97;;
71513;SDS011;59335;46.652;21.272;2023-05-18T00:35:41;11.30;;;6.70;;
71513;SDS011;59335;46.652;21.272;2023-05-18T00:38:44;10.20;;;6.60;;
71513;SDS011;59335;46.652;21.272;2023-05-18T00:41:46;10.18;;;6.60;;
71513;SDS011;59335;46.652;21.272;2023-05-18T00:44:49;10.35;;;6.45;;
71513;SDS011;59335;46.652;21.272;2023-05-18T00:47:52;8.60;;;6.00;;
71513;SDS011;59335;46.652;21.272;2023-05-18T00:50:54;10.63;;;6.47;;
71513;SDS011;59335;46.652;21.272;2023-05-18T00:53:58;10.37;;;6.43;;
71513;SDS011;59335;46.652;21.272;2023-05-18T00:57:02;8.77;;;6.07;;
71513;SDS011;59335;46.652;21.272;2023-05-18T01:00:06;10.20;;;6.38;;
71513;SDS011;59335;46.652;21.272;2023-05-18T01:03:11;10.18;;;6.40;;
71513;SDS011;59335;46.652;21.272;2023-05-18T01:06:16;10.02;;;6.00;;
71513;SDS011;59335;46.652;21.272;2023-05-18T01:09:19;10.60;;;6.20;;
71513;SDS011;59335;46.652;21.272;2023-05-18T01:12:35;9.70;;;6.40;;
71513;SDS011;59335;46.652;21.272;2023-05-18T01:15:42;11.05;;;6.53;;
71513;SDS011;59335;46.652;21.272;2023-05-18T01:18:52;10.63;;;6.13;;
71513;SDS011;59335;46.652;21.272;2023-05-18T01:29:01;10.65;;;5.97;;
71513;SDS011;59335;46.652;21.272;2023-05-18T01:32:06;9.65;;;6.40;;
71513;SDS011;59335;46.652;21.272;2023-05-18T01:35:09;10.63;;;6.32;;
71513;SDS011;59335;46.652;21.272;2023-05-18T01:38:11;10.93;;;6.63;;
71513;SDS011;59335;46.652;21.272;2023-05-18T01:44:27;11.02;;;6.70;;
71513;SDS011;59335;46.652;21.272;2023-05-18T01:47:34;9.93;;;6.18;;
71513;SDS011;59335;46.652;21.272;2023-05-18T01:50:42;10.05;;;5.97;;
71513;SDS011;59335;46.652;21.272;2023-05-18T01:53:51;10.05;;;6.50;;
71513;SDS011;59335;46.652;21.272;2023-05-18T01:57:00;9.30;;;6.40;;
71513;SDS011;59335;46.652;21.272;2023-05-18T02:00:07;11.63;;;7.00;;
71513;SDS011;59335;46.652;21.272;2023-05-18T02:03:17;10.38;;;6.82;;
71513;SDS011;59335;46.652;21.272;2023-05-18T02:06:20;11.52;;;6.30;;
71513;SDS011;59335;46.652;21.272;2023-05-18T02:09:22;11.85;;;6.18;;
71513;SDS011;59335;46.652;21.272;2023-05-18T02:12:25;11.20;;;6.00;;
71513;SDS011;59335;46.652;21.272;2023-05-18T02:15:28;8.52;;;5.70;;
71513;SDS011;59335;46.652;21.272;2023-05-18T02:18:31;10.20;;;5.93;;
71513;SDS011;59335;46.652;21.272;2023-05-18T02:21:35;9.38;;;6.00;;
71513;SDS011;59335;46.652;21.272;2023-05-18T02:24:38;9.73;;;6.60;;
71513;SDS011;59335;46.652;21.272;2023-05-18T02:27:41;10.03;;;5.90;;
71513;SDS011;59335;46.652;21.272;2023-05-18T02:30:44;9.40;;;5.75;;
71513;SDS011;59335;46.652;21.272;2023-05-18T02:33:46;9.20;;;5.45;;
71513;SDS011;59335;46.652;21.272;2023-05-18T02:36:49;10.10;;;5.82;;
71513;SDS011;59335;46.652;21.272;2023-05-18T02:39:52;10.77;;;6.65;;
71513;SDS011;59335;46.652;21.272;2023-05-18T02:42:54;9.03;;;6.07;;
71513;SDS011;59335;46.652;21.272;2023-05-18T02:45:58;10.88;;;5.72;;
71513;SDS011;59335;46.652;21.272;2023-05-18T02:49:01;9.75;;;5.75;;
71513;SDS011;59335;46.652;21.272;2023-05-18T02:52:04;9.75;;;5.80;;
71513;SDS011;59335;46.652;21.272;2023-05-18T02:55:07;9.25;;;5.63;;
71513;SDS011;59335;46.652;21.272;2023-05-18T02:58:28;8.67;;;5.30;;
71513;SDS011;59335;46.652;21.272;2023-05-18T03:01:44;9.15;;;5.38;;
71513;SDS011;59335;46.652;21.272;2023-05-18T03:04:46;9.57;;;5.25;;
71513;SDS011;59335;46.652;21.272;2023-05-18T03:07:55;9.38;;;5.50;;
71513;SDS011;59335;46.652;21.272;2023-05-18T03:10:58;8.07;;;5.10;;
71513;SDS011;59335;46.652;21.272;2023-05-18T03:14:01;9.13;;;5.53;;
71513;SDS011;59335;46.652;21.272;2023-05-18T03:17:04;9.98;;;5.57;;
71513;SDS011;59335;46.652;21.272;2023-05-18T03:20:08;9.90;;;5.72;;
71513;SDS011;59335;46.652;21.272;2023-05-18T03:23:17;9.00;;;5.40;;
71513;SDS011;59335;46.652;21.272;2023-05-18T03:26:22;8.32;;;4.80;;
71513;SDS011;59335;46.652;21.272;2023-05-18T03:29:27;8.17;;;5.10;;
71513;SDS011;59335;46.652;21.272;2023-05-18T03:32:33;8.95;;;5.43;;
71513;SDS011;59335;46.652;21.272;2023-05-18T03:35:38;8.65;;;5.30;;
71513;SDS011;59335;46.652;21.272;2023-05-18T03:38:43;8.50;;;4.85;;
71513;SDS011;59335;46.652;21.272;2023-05-18T03:41:50;8.82;;;5.07;;
71513;SDS011;59335;46.652;21.272;2023-05-18T03:44:53;9.30;;;5.23;;
71513;SDS011;59335;46.652;21.272;2023-05-18T03:47:55;9.13;;;5.50;;
71513;SDS011;59335;46.652;21.272;2023-05-18T03:50:59;8.45;;;5.82;;
71513;SDS011;59335;46.652;21.272;2023-05-18T03:54:04;9.85;;;5.60;;
71513;SDS011;59335;46.652;21.272;2023-05-18T03:57:07;8.30;;;5.53;;
71513;SDS011;59335;46.652;21.272;2023-05-18T04:00:10;8.40;;;5.30;;
71513;SDS011;59335;46.652;21.272;2023-05-18T04:03:20;8.45;;;5.30;;
71513;SDS011;59335;46.652;21.272;2023-05-18T04:06:26;8.57;;;6.03;;
71513;SDS011;59335;46.652;21.272;2023-05-18T04:09:28;8.88;;;5.22;;
71513;SDS011;59335;46.652;21.272;2023-05-18T04:12:31;8.73;;;5.35;;
71513;SDS011;59335;46.652;21.272;2023-05-18T04:15:34;10.20;;;5.10;;
71513;SDS011;59335;46.652;21.272;2023-05-18T04:18:38;8.43;;;4.90;;
71513;SDS011;59335;46.652;21.272;2023-05-18T04:21:41;7.45;;;5.00;;
71513;SDS011;59335;46.652;21.272;2023-05-18T04:24:44;9.10;;;5.38;;
71513;SDS011;59335;46.652;21.272;2023-05-18T04:27:48;8.10;;;5.00;;
71513;SDS011;59335;46.652;21.272;2023-05-18T04:30:52;7.70;;;4.97;;
71513;SDS011;59335;46.652;21.272;2023-05-18T04:33:55;9.68;;;5.30;;
71513;SDS011;59335;46.652;21.272;2023-05-18T04:36:59;7.65;;;4.85;;
71513;SDS011;59335;46.652;21.272;2023-05-18T04:40:04;7.28;;;4.72;;
71513;SDS011;59335;46.652;21.272;2023-05-18T04:43:16;9.07;;;5.07;;
71513;SDS011;59335;46.652;21.272;2023-05-18T04:46:19;8.27;;;5.20;;
71513;SDS011;59335;46.652;21.272;2023-05-18T04:49:25;9.88;;;4.68;;
71513;SDS011;59335;46.652;21.272;2023-05-18T04:52:29;7.82;;;4.88;;
71513;SDS011;59335;46.652;21.272;2023-05-18T04:55:32;8.90;;;5.10;;
71513;SDS011;59335;46.652;21.272;2023-05-18T04:58:44;9.02;;;4.90;;
71513;SDS011;59335;46.652;21.272;2023-05-18T05:01:50;8.27;;;5.00;;
71513;SDS011;59335;46.652;21.272;2023-05-18T05:04:54;8.02;;;4.72;;
71513;SDS011;59335;46.652;21.272;2023-05-18T05:07:57;7.95;;;4.80;;
71513;SDS011;59335;46.652;21.272;2023-05-18T05:11:00;9.20;;;4.75;;
71513;SDS011;59335;46.652;21.272;2023-05-18T05:14:03;8.45;;;4.93;;
71513;SDS011;59335;46.652;21.272;2023-05-18T05:17:05;8.07;;;5.13;;
71513;SDS011;59335;46.652;21.272;2023-05-18T05:20:09;7.70;;;4.80;;
71513;SDS011;59335;46.652;21.272;2023-05-18T05:23:12;7.50;;;4.38;;
71513;SDS011;59335;46.652;21.272;2023-05-18T05:26:17;9.10;;;4.55;;
71513;SDS011;59335;46.652;21.272;2023-05-18T05:29:20;7.80;;;4.47;;
71513;SDS011;59335;46.652;21.272;2023-05-18T05:32:23;7.80;;;4.67;;
71513;SDS011;59335;46.652;21.272;2023-05-18T05:35:26;7.80;;;4.82;;
71513;SDS011;59335;46.652;21.272;2023-05-18T05:38:31;8.10;;;4.82;;
71513;SDS011;59335;46.652;21.272;2023-05-18T05:41:34;9.52;;;4.55;;
71513;SDS011;59335;46.652;21.272;2023-05-18T05:44:36;6.97;;;4.55;;
71513;SDS011;59335;46.652;21.272;2023-05-18T05:47:40;8.57;;;4.67;;
71513;SDS011;59335;46.652;21.272;2023-05-18T05:50:43;8.13;;;4.35;;
71513;SDS011;59335;46.652;21.272;2023-05-18T05:53:47;9.18;;;4.57;;
71513;SDS011;59335;46.652;21.272;2023-05-18T05:56:52;7.82;;;4.18;;
71513;SDS011;59335;46.652;21.272;2023-05-18T05:59:54;9.63;;;4.97;;
71513;SDS011;59335;46.652;21.272;2023-05-18T06:02:57;9.37;;;4.60;;
71513;SDS011;59335;46.652;21.272;2023-05-18T06:06:10;7.25;;;4.30;;
71513;SDS011;59335;46.652;21.272;2023-05-18T06:09:13;7.25;;;4.72;;
71513;SDS011;59335;46.652;21.272;2023-05-18T06:12:17;7.30;;;4.53;;
71513;SDS011;59335;46.652;21.272;2023-05-18T06:15:19;7.97;;;4.28;;
71513;SDS011;59335;46.652;21.272;2023-05-18T06:18:22;8.37;;;4.70;;
71513;SDS011;59335;46.652;21.272;2023-05-18T06:21:29;8.68;;;4.70;;
71513;SDS011;59335;46.652;21.272;2023-05-18T06:24:33;9.38;;;4.95;;
71513;SDS011;59335;46.652;21.272;2023-05-18T06:27:59;8.10;;;4.60;;
71513;SDS011;59335;46.652;21.272;2023-05-18T06:31:24;9.35;;;4.38;;
71513;SDS011;59335;46.652;21.272;2023-05-18T06:34:54;7.77;;;4.60;;
71513;SDS011;59335;46.652;21.272;2023-05-18T06:38:06;7.55;;;4.43;;
71513;SDS011;59335;46.652;21.272;2023-05-18T06:41:09;7.28;;;4.85;;
71513;SDS011;59335;46.652;21.272;2023-05-18T06:44:12;7.43;;;4.30;;
71513;SDS011;59335;46.652;21.272;2023-05-18T06:47:34;9.88;;;4.70;;
71513;SDS011;59335;46.652;21.272;2023-05-18T06:50:38;6.70;;;4.27;;
71513;SDS011;59335;46.652;21.272;2023-05-18T06:53:41;8.88;;;4.82;;
71513;SDS011;59335;46.652;21.272;2023-05-18T06:56:44;11.48;;;5.18;;
71513;SDS011;59335;46.652;21.272;2023-05-18T06:59:50;9.48;;;5.00;;
71513;SDS011;59335;46.652;21.272;2023-05-18T07:02:55;10.18;;;4.80;;
71513;SDS011;59335;46.652;21.272;2023-05-18T07:05:59;10.83;;;4.83;;
71513;SDS011;59335;46.652;21.272;2023-05-18T07:09:01;10.13;;;4.68;;
71513;SDS011;59335;46.652;21.272;2023-05-18T07:12:05;8.27;;;4.90;;
71513;SDS011;59335;46.652;21.272;2023-05-18T07:15:08;8.48;;;4.55;;
71513;SDS011;59335;46.652;21.272;2023-05-18T07:18:13;8.35;;;4.78;;
71513;SDS011;59335;46.652;21.272;2023-05-18T07:21:17;9.00;;;4.50;;
71513;SDS011;59335;46.652;21.272;2023-05-18T07:24:21;7.82;;;4.70;;
71513;SDS011;59335;46.652;21.272;2023-05-18T07:27:23;9.00;;;4.55;;
71513;SDS011;59335;46.652;21.272;2023-05-18T07:30:26;11.50;;;4.25;;
71513;SDS011;59335;46.652;21.272;2023-05-18T07:33:29;9.52;;;4.70;;
71513;SDS011;59335;46.652;21.272;2023-05-18T07:36:31;8.20;;;4.10;;
71513;SDS011;59335;46.652;21.272;2023-05-18T07:39:34;9.18;;;4.80;;
71513;SDS011;59335;46.652;21.272;2023-05-18T07:42:38;9.13;;;4.78;;
71513;SDS011;59335;46.652;21.272;2023-05-18T07:45:41;8.52;;;4.60;;
71513;SDS011;59335;46.652;21.272;2023-05-18T07:48:44;8.02;;;4.60;;
71513;SDS011;59335;46.652;21.272;2023-05-18T07:51:48;7.73;;;4.33;;
71513;SDS011;59335;46.652;21.272;2023-05-18T07:54:52;10.75;;;4.60;;
71513;SDS011;59335;46.652;21.272;2023-05-18T07:57:56;8.98;;;4.53;;
71513;SDS011;59335;46.652;21.272;2023-05-18T08:01:07;9.20;;;4.85;;
71513;SDS011;59335;46.652;21.272;2023-05-18T08:04:10;9.77;;;4.45;;
71513;SDS011;59335;46.652;21.272;2023-05-18T08:07:13;8.70;;;4.40;;
71513;SDS011;59335;46.652;21.272;2023-05-18T08:10:16;8.50;;;4.47;;
71513;SDS011;59335;46.652;21.272;2023-05-18T08:13:18;11.05;;;4.35;;
71513;SDS011;59335;46.652;21.272;2023-05-18T08:16:21;9.50;;;4.65;;
71513;SDS011;59335;46.652;21.272;2023-05-18T08:19:25;10.57;;;4.28;;
71513;SDS011;59335;46.652;21.272;2023-05-18T08:22:29;8.87;;;4.13;;
71513;SDS011;59335;46.652;21.272;2023-05-18T08:25:32;8.18;;;3.95;;
71513;SDS011;59335;46.652;21.272;2023-05-18T08:28:38;8.95;;;4.28;;
71513;SDS011;59335;46.652;21.272;2023-05-18T08:31:41;9.75;;;3.95;;
71513;SDS011;59335;46.652;21.272;2023-05-18T08:34:44;9.77;;;4.80;;
71513;SDS011;59335;46.652;21.272;2023-05-18T08:37:49;11.07;;;4.60;;
71513;SDS011;59335;46.652;21.272;2023-05-18T08:41:01;6.68;;;3.90;;
71513;SDS011;59335;46.652;21.272;2023-05-18T08:44:29;8.75;;;4.43;;
71513;SDS011;59335;46.652;21.272;2023-05-18T08:47:56;8.90;;;4.18;;
71513;SDS011;59335;46.652;21.272;2023-05-18T08:51:07;8.82;;;4.05;;
71513;SDS011;59335;46.652;21.272;2023-05-18T08:54:10;11.03;;;4.50;;
71513;SDS011;59335;46.652;21.272;2023-05-18T08:57:21;10.85;;;4.00;;
71513;SDS011;59335;46.652;21.272;2023-05-18T09:00:24;12.52;;;4.38;;
71513;SDS011;59335;46.652;21.272;2023-05-18T09:03:27;9.15;;;4.22;;
71513;SDS011;59335;46.652;21.272;2023-05-18T09:06:35;11.75;;;4.10;;
71513;SDS011;59335;46.652;21.272;2023-05-18T09:09:39;10.90;;;4.60;;
71513;SDS011;59335;46.652;21.272;2023-05-18T09:12:43;10.35;;;4.40;;
71513;SDS011;59335;46.652;21.272;2023-05-18T09:15:49;11.43;;;4.10;;
71513;SDS011;59335;46.652;21.272;2023-05-18T09:18:55;11.93;;;3.88;;
71513;SDS011;59335;46.652;21.272;2023-05-18T09:21:58;9.25;;;4.20;;
71513;SDS011;59335;46.652;21.272;2023-05-18T09:25:01;9.03;;;4.43;;
71513;SDS011;59335;46.652;21.272;2023-05-18T09:28:05;9.05;;;3.95;;
71513;SDS011;59335;46.652;21.272;2023-05-18T09:31:08;12.80;;;4.20;;
71513;SDS011;59335;46.652;21.272;2023-05-18T09:34:17;10.23;;;4.32;;
71513;SDS011;59335;46.652;21.272;2023-05-18T09:37:20;7.88;;;3.80;;
71513;SDS011;59335;46.652;21.272;2023-05-18T09:40:26;7.90;;;3.57;;
71513;SDS011;59335;46.652;21.272;2023-05-18T09:43:31;11.70;;;4.10;;
71513;SDS011;59335;46.652;21.272;2023-05-18T09:46:39;10.35;;;4.35;;
71513;SDS011;59335;46.652;21.272;2023-05-18T09:49:43;7.57;;;4.00;;
71513;SDS011;59335;46.652;21.272;2023-05-18T09:52:46;8.88;;;4.10;;
71513;SDS011;59335;46.652;21.272;2023-05-18T09:55:50;10.53;;;3.80;;
71513;SDS011;59335;46.652;21.272;2023-05-18T09:58:53;10.80;;;4.18;;
71513;SDS011;59335;46.652;21.272;2023-05-18T10:02:00;8.45;;;3.90;;
71513;SDS011;59335;46.652;21.272;2023-05-18T10:05:26;9.38;;;3.78;;
71513;SDS011;59335;46.652;21.272;2023-05-18T10:08:36;9.57;;;4.00;;
71513;SDS011;59335;46.652;21.272;2023-05-18T10:11:42;8.40;;;3.77;;
71513;SDS011;59335;46.652;21.272;2023-05-18T10:14:45;11.60;;;4.20;;
71513;SDS011;59335;46.652;21.272;2023-05-18T10:17:54;10.98;;;3.80;;
71513;SDS011;59335;46.652;21.272;2023-05-18T10:20:59;8.48;;;3.97;;
71513;SDS011;59335;46.652;21.272;2023-05-18T10:24:05;9.57;;;3.78;;
71513;SDS011;59335;46.652;21.272;2023-05-18T10:27:10;12.80;;;4.10;;
71513;SDS011;59335;46.652;21.272;2023-05-18T10:30:17;9.70;;;3.58;;
71513;SDS011;59335;46.652;21.272;2023-05-18T10:33:22;14.10;;;4.63;;
71513;SDS011;59335;46.652;21.272;2023-05-18T10:36:31;9.48;;;3.55;;
71513;SDS011;59335;46.652;21.272;2023-05-18T10:39:37;9.35;;;3.83;;
71513;SDS011;59335;46.652;21.272;2023-05-18T10:42:41;11.43;;;4.03;;
71513;SDS011;59335;46.652;21.272;2023-05-18T10:45:49;9.75;;;3.67;;
71513;SDS011;59335;46.652;21.272;2023-05-18T10:48:54;8.90;;;3.95;;
71513;SDS011;59335;46.652;21.272;2023-05-18T10:52:00;17.55;;;3.80;;
71513;SDS011;59335;46.652;21.272;2023-05-18T10:55:06;9.57;;;3.75;;
71513;SDS011;59335;46.652;21.272;2023-05-18T10:58:15;7.90;;;3.40;;
71513;SDS011;59335;46.652;21.272;2023-05-18T11:01:19;8.50;;;3.42;;
71513;SDS011;59335;46.652;21.272;2023-05-18T11:04:23;9.98;;;3.90;;
71513;SDS011;59335;46.652;21.272;2023-05-18T11:07:37;9.07;;;4.10;;
71513;SDS011;59335;46.652;21.272;2023-05-18T11:10:40;13.27;;;3.92;;
71513;SDS011;59335;46.652;21.272;2023-05-18T11:13:48;9.73;;;3.47;;
71513;SDS011;59335;46.652;21.272;2023-05-18T11:17:15;8.52;;;3.80;;
71513;SDS011;59335;46.652;21.272;2023-05-18T11:20:23;7.63;;;3.67;;
71513;SDS011;59335;46.652;21.272;2023-05-18T11:23:33;11.23;;;3.83;;
71513;SDS011;59335;46.652;21.272;2023-05-18T11:26:37;10.43;;;3.97;;
71513;SDS011;59335;46.652;21.272;2023-05-18T11:29:42;10.80;;;3.50;;
71513;SDS011;59335;46.652;21.272;2023-05-18T11:32:49;9.57;;;3.83;;
71513;SDS011;59335;46.652;21.272;2023-05-18T11:36:13;12.98;;;3.92;;
71513;SDS011;59335;46.652;21.272;2023-05-18T11:39:22;7.65;;;3.47;;
71513;SDS011;59335;46.652;21.272;2023-05-18T11:42:30;8.60;;;3.88;;
71513;SDS011;59335;46.652;21.272;2023-05-18T11:45:36;7.83;;;3.50;;
71513;SDS011;59335;46.652;21.272;2023-05-18T11:49:03;9.10;;;3.60;;
71513;SDS011;59335;46.652;21.272;2023-05-18T11:52:21;8.93;;;4.00;;
71513;SDS011;59335;46.652;21.272;2023-05-18T11:55:35;11.35;;;3.60;;
71513;SDS011;59335;46.652;21.272;2023-05-18T11:58:39;10.38;;;3.83;;
71513;SDS011;59335;46.652;21.272;2023-05-18T12:01:42;11.23;;;4.10;;
71513;SDS011;59335;46.652;21.272;2023-05-18T12:04:46;11.85;;;4.03;;
71513;SDS011;59335;46.652;21.272;2023-05-18T12:07:53;7.18;;;3.40;;
71513;SDS011;59335;46.652;21.272;2023-05-18T12:10:56;7.72;;;3.53;;
71513;SDS011;59335;46.652;21.272;2023-05-18T12:14:00;10.38;;;3.90;;
71513;SDS011;59335;46.652;21.272;2023-05-18T12:17:03;9.53;;;3.93;;
71513;SDS011;59335;46.652;21.272;2023-05-18T12:20:10;8.50;;;4.15;;
71513;SDS011;59335;46.652;21.272;2023-05-18T12:23:14;8.80;;;4.00;;
71513;SDS011;59335;46.652;21.272;2023-05-18T12:26:16;7.22;;;3.30;;
71513;SDS011;59335;46.652;21.272;2023-05-18T12:29:21;7.60;;;4.35;;
71513;SDS011;59335;46.652;21.272;2023-05-18T12:32:24;8.73;;;3.73;;
71513;SDS011;59335;46.652;21.272;2023-05-18T12:35:27;8.70;;;3.80;;
71513;SDS011;59335;46.652;21.272;2023-05-18T12:38:32;10.05;;;3.53;;
71513;SDS011;59335;46.652;21.272;2023-05-18T12:41:35;8.75;;;3.70;;
71513;SDS011;59335;46.652;21.272;2023-05-18T12:44:38;10.95;;;3.25;;
71513;SDS011;59335;46.652;21.272;2023-05-18T12:47:42;9.47;;;3.67;;
71513;SDS011;59335;46.652;21.272;2023-05-18T12:50:45;6.82;;;3.30;;
71513;SDS011;59335;46.652;21.272;2023-05-18T12:53:49;9.90;;;3.53;;
71513;SDS011;59335;46.652;21.272;2023-05-18T12:56:52;7.50;;;3.45;;
71513;SDS011;59335;46.652;21.272;2023-05-18T13:00:05;7.18;;;3.40;;
71513;SDS011;59335;46.652;21.272;2023-05-18T13:03:12;6.90;;;3.70;;
71513;SDS011;59335;46.652;21.272;2023-05-18T13:06:18;8.02;;;3.45;;
71513;SDS011;59335;46.652;21.272;2023-05-18T13:09:21;7.95;;;3.70;;
71513;SDS011;59335;46.652;21.272;2023-05-18T13:12:43;7.30;;;3.50;;
71513;SDS011;59335;46.652;21.272;2023-05-18T13:15:49;8.48;;;3.53;;
71513;SDS011;59335;46.652;21.272;2023-05-18T13:18:55;10.77;;;3.73;;
71513;SDS011;59335;46.652;21.272;2023-05-18T13:21:59;11.10;;;3.85;;
71513;SDS011;59335;46.652;21.272;2023-05-18T13:25:02;93.13;;;8.95;;
71513;SDS011;59335;46.652;21.272;2023-05-18T13:28:06;70.72;;;7.93;;
71513;SDS011;59335;46.652;21.272;2023-05-18T13:31:11;84.80;;;7.53;;
71513;SDS011;59335;46.652;21.272;2023-05-18T13:34:14;55.43;;;6.90;;
71513;SDS011;59335;46.652;21.272;2023-05-18T13:37:17;44.42;;;5.55;;
71513;SDS011;59335;46.652;21.272;2023-05-18T13:40:21;36.33;;;5.35;;
71513;SDS011;59335;46.652;21.272;2023-05-18T13:43:27;48.75;;;6.50;;
71513;SDS011;59335;46.652;21.272;2023-05-18T13:46:30;36.92;;;5.22;;
71513;SDS011;59335;46.652;21.272;2023-05-18T13:49:33;24.17;;;4.80;;
71513;SDS011;59335;46.652;21.272;2023-05-18T13:52:36;33.13;;;5.38;;
71513;SDS011;59335;46.652;21.272;2023-05-18T13:55:39;34.28;;;5.95;;
71513;SDS011;59335;46.652;21.272;2023-05-18T13:58:42;36.95;;;5.22;;
71513;SDS011;59335;46.652;21.272;2023-05-18T14:01:45;25.75;;;4.78;;
71513;SDS011;59335;46.652;21.272;2023-05-18T14:04:48;23.63;;;4.47;;
71513;SDS011;59335;46.652;21.272;2023-05-18T14:07:51;34.45;;;5.75;;
71513;SDS011;59335;46.652;21.272;2023-05-18T14:10:53;34.17;;;5.05;;
71513;SDS011;59335;46.652;21.272;2023-05-18T14:13:56;29.63;;;5.47;;
71513;SDS011;59335;46.652;21.272;2023-05-18T14:16:59;32.35;;;5.32;;
71513;SDS011;59335;46.652;21.272;2023-05-18T14:20:02;26.33;;;4.70;;
71513;SDS011;59335;46.652;21.272;2023-05-18T14:23:06;26.23;;;5.07;;
71513;SDS011;59335;46.652;21.272;2023-05-18T14:26:10;27.55;;;4.82;;
71513;SDS011;59335;46.652;21.272;2023-05-18T14:29:13;26.27;;;4.53;;
71513;SDS011;59335;46.652;21.272;2023-05-18T14:32:16;27.65;;;5.00;;
71513;SDS011;59335;46.652;21.272;2023-05-18T14:35:19;33.40;;;5.07;;
71513;SDS011;59335;46.652;21.272;2023-05-18T14:38:22;28.50;;;5.18;;
71513;SDS011;59335;46.652;21.272;2023-05-18T14:41:27;30.25;;;5.65;;
71513;SDS011;59335;46.652;21.272;2023-05-18T14:44:30;24.27;;;4.80;;
71513;SDS011;59335;46.652;21.272;2023-05-18T14:47:33;19.67;;;4.40;;
71513;SDS011;59335;46.652;21.272;2023-05-18T14:50:36;25.10;;;4.83;;
71513;SDS011;59335;46.652;21.272;2023-05-18T14:53:40;22.13;;;4.63;;
71513;SDS011;59335;46.652;21.272;2023-05-18T14:56:43;15.63;;;4.22;;
71513;SDS011;59335;46.652;21.272;2023-05-18T14:59:46;26.20;;;4.47;;
71513;SDS011;59335;46.652;21.272;2023-05-18T15:02:48;22.27;;;4.82;;
71513;SDS011;59335;46.652;21.272;2023-05-18T15:05:51;21.73;;;4.77;;
71513;SDS011;59335;46.652;21.272;2023-05-18T15:08:54;24.45;;;4.03;;
71513;SDS011;59335;46.652;21.272;2023-05-18T15:11:57;28.52;;;5.53;;
71513;SDS011;59335;46.652;21.272;2023-05-18T15:14:59;22.10;;;4.53;;
71513;SDS011;59335;46.652;21.272;2023-05-18T15:18:02;19.25;;;4.30;;
71513;SDS011;59335;46.652;21.272;2023-05-18T15:21:05;21.93;;;4.63;;
71513;SDS011;59335;46.652;21.272;2023-05-18T15:24:07;18.23;;;4.50;;
71513;SDS011;59335;46.652;21.272;2023-05-18T15:27:10;21.48;;;5.70;;
71513;SDS011;59335;46.652;21.272;2023-05-18T15:30:13;21.90;;;5.00;;
71513;SDS011;59335;46.652;21.272;2023-05-18T15:33:16;22.52;;;4.85;;
71513;SDS011;59335;46.652;21.272;2023-05-18T15:36:19;18.67;;;5.20;;
71513;SDS011;59335;46.652;21.272;2023-05-18T15:39:22;18.15;;;5.05;;
71513;SDS011;59335;46.652;21.272;2023-05-18T15:42:25;22.13;;;5.03;;
71513;SDS011;59335;46.652;21.272;2023-05-18T15:45:27;21.13;;;4.60;;
71513;SDS011;59335;46.652;21.272;2023-05-18T15:48:30;17.35;;;4.47;;
71513;SDS011;59335;46.652;21.272;2023-05-18T15:51:33;20.33;;;5.00;;
71513;SDS011;59335;46.652;21.272;2023-05-18T15:54:35;15.55;;;4.55;;
71513;SDS011;59335;46.652;21.272;2023-05-18T15:57:38;16.17;;;4.30;;
71513;SDS011;59335;46.652;21.272;2023-05-18T16:00:41;17.52;;;4.45;;
71513;SDS011;59335;46.652;21.272;2023-05-18T16:03:43;16.63;;;4.43;;
71513;SDS011;59335;46.652;21.272;2023-05-18T16:06:47;17.90;;;4.27;;
71513;SDS011;59335;46.652;21.272;2023-05-18T16:09:49;21.13;;;4.38;;
71513;SDS011;59335;46.652;21.272;2023-05-18T16:12:52;20.98;;;4.05;;
71513;SDS011;59335;46.652;21.272;2023-05-18T16:15:55;14.93;;;4.22;;
71513;SDS011;59335;46.652;21.272;2023-05-18T16:18:57;16.25;;;4.25;;
71513;SDS011;59335;46.652;21.272;2023-05-18T16:22:01;16.80;;;4.30;;
71513;SDS011;59335;46.652;21.272;2023-05-18T16:25:04;15.93;;;4.47;;
71513;SDS011;59335;46.652;21.272;2023-05-18T16:28:07;17.55;;;4.43;;
71513;SDS011;59335;46.652;21.272;2023-05-18T16:31:10;11.35;;;4.15;;
71513;SDS011;59335;46.652;21.272;2023-05-18T16:34:13;17.88;;;4.55;;
71513;SDS011;59335;46.652;21.272;2023-05-18T16:37:16;14.93;;;3.97;;
71513;SDS011;59335;46.652;21.272;2023-05-18T16:40:18;15.15;;;4.40;;
71513;SDS011;59335;46.652;21.272;2023-05-18T16:43:21;11.38;;;3.72;;
71513;SDS011;59335;46.652;21.272;2023-05-18T16:46:24;12.02;;;4.00;;
71513;SDS011;59335;46.652;21.272;2023-05-18T16:49:27;14.82;;;4.22;;
71513;SDS011;59335;46.652;21.272;2023-05-18T16:52:29;15.80;;;3.90;;
71513;SDS011;59335;46.652;21.272;2023-05-18T16:55:32;12.38;;;3.80;;
71513;SDS011;59335;46.652;21.272;2023-05-18T16:58:34;16.00;;;4.18;;
71513;SDS011;59335;46.652;21.272;2023-05-18T17:01:37;13.38;;;3.72;;
71513;SDS011;59335;46.652;21.272;2023-05-18T17:04:40;15.15;;;4.00;;
71513;SDS011;59335;46.652;21.272;2023-05-18T17:07:43;13.97;;;4.27;;
71513;SDS011;59335;46.652;21.272;2023-05-18T17:10:47;12.77;;;4.00;;
71513;SDS011;59335;46.652;21.272;2023-05-18T17:13:50;10.95;;;3.97;;
71513;SDS011;59335;46.652;21.272;2023-05-18T17:16:53;16.10;;;4.10;;
71513;SDS011;59335;46.652;21.272;2023-05-18T17:19:56;11.85;;;3.70;;
71513;SDS011;59335;46.652;21.272;2023-05-18T17:22:59;11.23;;;3.90;;
71513;SDS011;59335;46.652;21.272;2023-05-18T17:26:03;14.73;;;4.43;;
71513;SDS011;59335;46.652;21.272;2023-05-18T17:29:07;8.55;;;3.65;;
71513;SDS011;59335;46.652;21.272;2023-05-18T17:32:10;14.00;;;3.97;;
71513;SDS011;59335;46.652;21.272;2023-05-18T17:35:12;9.25;;;4.30;;
71513;SDS011;59335;46.652;21.272;2023-05-18T17:38:15;11.37;;;4.10;;
71513;SDS011;59335;46.652;21.272;2023-05-18T17:41:18;12.27;;;4.03;;
71513;SDS011;59335;46.652;21.272;2023-05-18T17:44:23;13.43;;;4.30;;
71513;SDS011;59335;46.652;21.272;2023-05-18T17:47:25;11.15;;;4.07;;
71513;SDS011;59335;46.652;21.272;2023-05-18T17:50:28;11.07;;;4.00;;
71513;SDS011;59335;46.652;21.272;2023-05-18T17:53:31;11.77;;;4.00;;
71513;SDS011;59335;46.652;21.272;2023-05-18T17:56:35;12.38;;;4.32;;
71513;SDS011;59335;46.652;21.272;2023-05-18T17:59:38;12.23;;;4.32;;
71513;SDS011;59335;46.652;21.272;2023-05-18T18:02:41;10.77;;;3.90;;
71513;SDS011;59335;46.652;21.272;2023-05-18T18:05:44;13.75;;;4.60;;
71513;SDS011;59335;46.652;21.272;2023-05-18T18:08:50;11.93;;;4.00;;
71513;SDS011;59335;46.652;21.272;2023-05-18T18:11:58;14.93;;;4.13;;
71513;SDS011;59335;46.652;21.272;2023-05-18T18:15:02;8.93;;;3.60;;
71513;SDS011;59335;46.652;21.272;2023-05-18T18:18:05;11.68;;;4.22;;
71513;SDS011;59335;46.652;21.272;2023-05-18T18:21:10;10.65;;;3.75;;